createdAt,value
2022-11-08T00:00:05.012Z,21.70
2022-11-08T00:02:53.204Z,20.10
2022-11-08T00:05:39.814Z,19.20
2022-11-08T00:08:26.516Z,21.80
2022-11-08T00:11:13.280Z,18.00
2022-11-08T00:13:59.861Z,21.80
2022-11-08T00:16:28.805Z,23.80
2022-11-08T00:18:57.130Z,22.10
2022-11-08T00:21:25.022Z,21.50
2022-11-08T00:23:53.886Z,23.90
2022-11-08T00:26:21.758Z,20.50
2022-11-08T00:28:49.640Z,19.00
2022-11-08T00:31:17.443Z,18.70
2022-11-08T00:33:45.285Z,20.40
2022-11-08T00:36:14.181Z,20.00
2022-11-08T00:38:43.822Z,21.90
2022-11-08T00:41:12.194Z,19.90
2022-11-08T00:43:40.115Z,18.30
2022-11-08T00:46:07.958Z,19.40
2022-11-08T00:48:35.822Z,25.00
2022-11-08T00:51:06.717Z,18.50
2022-11-08T00:53:37.846Z,23.10
2022-11-08T00:56:08.237Z,18.70
2022-11-08T00:58:36.018Z,20.10
2022-11-08T01:01:33.288Z,21.10
2022-11-08T01:04:01.315Z,18.00
2022-11-08T01:06:29.209Z,19.20
2022-11-08T01:08:57.173Z,17.90
2022-11-08T01:11:25.654Z,16.90
2022-11-08T01:13:58.399Z,18.80
2022-11-08T01:16:29.275Z,19.70
2022-11-08T01:18:57.599Z,19.00
2022-11-08T01:21:25.952Z,17.00
2022-11-08T01:23:57.272Z,23.10
2022-11-08T01:26:27.324Z,18.80
2022-11-08T01:28:57.233Z,22.20
2022-11-08T01:31:27.855Z,16.70
2022-11-08T01:33:55.812Z,18.00
2022-11-08T01:36:26.104Z,21.40
2022-11-08T01:38:55.123Z,19.90
2022-11-08T01:41:24.823Z,19.40
2022-11-08T01:44:00.602Z,20.40
2022-11-08T01:46:36.685Z,18.60
2022-11-08T01:49:19.094Z,21.40
2022-11-08T01:52:15.899Z,23.80
2022-11-08T01:54:46.448Z,19.90
2022-11-08T01:57:20.734Z,15.60
2022-11-08T01:59:49.870Z,20.70
2022-11-08T02:02:17.704Z,19.20
2022-11-08T02:04:45.634Z,16.90
2022-11-08T02:07:13.537Z,19.40
2022-11-08T02:09:43.244Z,18.80
2022-11-08T02:12:11.214Z,17.00
2022-11-08T02:14:39.104Z,18.10
2022-11-08T02:17:07.318Z,20.30
2022-11-08T02:19:45.977Z,21.80
2022-11-08T02:22:32.173Z,21.20
2022-11-08T02:25:00.500Z,18.50
2022-11-08T02:27:28.528Z,18.20
2022-11-08T02:29:56.700Z,20.30
2022-11-08T02:32:25.439Z,20.40
2022-11-08T02:34:58.455Z,19.90
2022-11-08T02:37:26.547Z,19.70
2022-11-08T02:39:54.404Z,17.10
2022-11-08T02:42:22.144Z,20.90
2022-11-08T02:44:50.031Z,23.60
2022-11-08T02:47:17.907Z,20.60
2022-11-08T02:49:45.698Z,18.10
2022-11-08T02:52:13.446Z,21.00
2022-11-08T02:54:41.161Z,15.80
2022-11-08T02:57:08.975Z,19.50
2022-11-08T02:59:36.924Z,20.40
2022-11-08T03:02:05.078Z,20.60
2022-11-08T03:04:33.979Z,18.60
2022-11-08T03:07:01.851Z,18.80
2022-11-08T03:09:29.938Z,16.60
2022-11-08T03:11:57.789Z,17.80
2022-11-08T03:14:25.805Z,21.10
2022-11-08T03:16:53.657Z,16.80
2022-11-08T03:19:21.488Z,16.70
2022-11-08T03:21:49.324Z,16.80
2022-11-08T03:24:17.080Z,18.20
2022-11-08T03:26:45.297Z,17.70
2022-11-08T03:29:13.148Z,21.90
2022-11-08T03:31:41.021Z,21.10
2022-11-08T03:34:10.741Z,18.90
2022-11-08T03:36:38.634Z,20.00
2022-11-08T03:39:06.462Z,19.80
2022-11-08T03:41:34.336Z,19.50
2022-11-08T03:44:02.196Z,21.30
2022-11-08T03:46:30.185Z,20.80
2022-11-08T03:48:58.031Z,21.30
2022-11-08T03:51:25.779Z,23.00
2022-11-08T03:53:53.660Z,21.20
2022-11-08T03:56:21.400Z,18.70
2022-11-08T03:58:49.226Z,20.30
2022-11-08T04:01:17.242Z,23.50
2022-11-08T04:03:46.154Z,23.40
2022-11-08T04:06:14.225Z,23.10
2022-11-08T04:08:42.185Z,23.00
2022-11-08T04:11:28.794Z,22.60
2022-11-08T04:14:16.056Z,25.20
2022-11-08T04:16:43.878Z,26.20
2022-11-08T04:19:30.720Z,24.00
2022-11-08T04:21:58.864Z,27.70
2022-11-08T04:24:27.886Z,24.30
2022-11-08T04:26:55.644Z,28.60
2022-11-08T04:29:23.471Z,27.90
2022-11-08T04:31:52.227Z,26.60
2022-11-08T04:34:19.974Z,24.30
2022-11-08T04:36:48.001Z,26.70
2022-11-08T04:39:16.074Z,24.40
2022-11-08T04:41:43.939Z,23.30
2022-11-08T04:44:11.925Z,23.80
2022-11-08T04:46:40.154Z,23.20
2022-11-08T04:49:08.279Z,20.10
2022-11-08T04:51:36.108Z,24.00
2022-11-08T04:54:06.411Z,24.50
2022-11-08T04:56:34.315Z,23.40
2022-11-08T04:59:02.152Z,24.50
2022-11-08T05:01:31.332Z,26.10
2022-11-08T05:03:59.391Z,26.40
2022-11-08T05:06:30.588Z,22.20
2022-11-08T05:08:59.013Z,24.00
2022-11-08T05:11:28.678Z,23.90
2022-11-08T05:13:57.065Z,24.70
2022-11-08T05:16:30.280Z,26.80
2022-11-08T05:18:58.418Z,28.60
2022-11-08T05:21:45.437Z,30.40
2022-11-08T05:24:15.453Z,34.10
2022-11-08T05:26:45.564Z,30.10
2022-11-08T05:29:14.360Z,24.60
2022-11-08T05:31:42.329Z,23.30
2022-11-08T05:34:10.191Z,23.40
2022-11-08T05:36:38.368Z,22.80
2022-11-08T05:39:06.461Z,24.40
2022-11-08T05:41:34.321Z,26.70
2022-11-08T05:44:02.169Z,27.30
2022-11-08T05:46:29.988Z,22.90
2022-11-08T05:48:57.900Z,26.30
2022-11-08T05:51:25.665Z,24.70
2022-11-08T05:53:53.532Z,24.70
2022-11-08T05:56:21.397Z,24.60
2022-11-08T05:58:49.164Z,25.90
2022-11-08T06:01:18.721Z,25.70
2022-11-08T06:03:47.375Z,29.60
2022-11-08T06:06:20.570Z,29.60
2022-11-08T06:08:50.705Z,28.90
2022-11-08T06:11:26.159Z,27.90
2022-11-08T06:13:55.431Z,23.50
2022-11-08T06:16:24.094Z,32.80
2022-11-08T06:18:52.194Z,28.10
2022-11-08T06:21:21.675Z,33.00
2022-11-08T06:23:53.866Z,32.30
2022-11-08T06:26:23.447Z,30.70
2022-11-08T06:28:52.445Z,31.00
2022-11-08T06:31:20.315Z,35.40
2022-11-08T06:33:48.834Z,36.20
2022-11-08T06:36:16.675Z,42.50
2022-11-08T06:38:44.537Z,33.50
2022-11-08T06:41:18.901Z,35.70
2022-11-08T06:43:46.761Z,32.90
2022-11-08T06:46:15.527Z,34.90
2022-11-08T06:48:43.318Z,35.60
2022-11-08T06:51:11.220Z,32.60
2022-11-08T06:53:39.074Z,35.70
2022-11-08T06:56:07.719Z,39.60
2022-11-08T06:58:36.317Z,36.60
2022-11-08T07:01:06.336Z,32.70
2022-11-08T07:03:34.437Z,33.60
2022-11-08T07:06:04.467Z,32.30
2022-11-08T07:08:33.570Z,35.50
2022-11-08T07:11:02.017Z,31.20
2022-11-08T07:13:29.923Z,31.10
2022-11-08T07:15:59.716Z,30.40
2022-11-08T07:18:27.968Z,26.70
2022-11-08T07:21:02.294Z,33.40
2022-11-08T07:23:30.144Z,27.80
2022-11-08T07:26:04.207Z,28.80
2022-11-08T07:28:32.177Z,28.80
2022-11-08T07:31:02.788Z,30.20
2022-11-08T07:33:30.878Z,26.50
2022-11-08T07:35:58.815Z,29.10
2022-11-08T07:38:26.716Z,26.80
2022-11-08T07:40:59.278Z,30.30
2022-11-08T07:43:28.629Z,28.70
2022-11-08T07:46:01.147Z,27.90
2022-11-08T07:48:29.919Z,29.10
2022-11-08T07:50:57.831Z,29.20
2022-11-08T07:53:25.757Z,29.30
2022-11-08T07:55:55.368Z,28.10
2022-11-08T07:58:23.371Z,28.30
2022-11-08T08:00:51.205Z,28.70
2022-11-08T08:03:19.379Z,25.90
2022-11-08T08:05:55.384Z,25.00
2022-11-08T08:08:25.964Z,25.80
2022-11-08T08:10:58.572Z,24.20
2022-11-08T08:13:26.590Z,25.10
2022-11-08T08:15:59.314Z,25.90
2022-11-08T08:18:28.854Z,27.50
2022-11-08T08:20:56.701Z,25.00
2022-11-08T08:23:24.487Z,24.40
2022-11-08T08:25:53.044Z,24.70
2022-11-08T08:28:20.801Z,24.50
2022-11-08T08:30:48.631Z,23.70
2022-11-08T08:33:32.709Z,24.90
2022-11-08T08:36:04.456Z,24.60
2022-11-08T08:38:33.846Z,25.20
2022-11-08T08:41:02.434Z,26.80
2022-11-08T08:43:32.643Z,27.20
2022-11-08T08:46:02.100Z,22.80
2022-11-08T08:48:30.025Z,23.20
2022-11-08T08:50:58.152Z,21.60
2022-11-08T08:53:26.414Z,21.10
2022-11-08T08:55:54.188Z,23.50
2022-11-08T08:58:22.254Z,20.60
2022-11-08T09:03:37.947Z,21.10
2022-11-08T09:06:06.022Z,19.30
2022-11-08T09:08:33.813Z,22.90
2022-11-08T09:11:01.779Z,21.00
2022-11-08T09:13:31.113Z,24.30
2022-11-08T09:16:01.551Z,21.10
2022-11-08T09:18:30.926Z,23.40
2022-11-08T09:20:59.218Z,20.40
2022-11-08T09:23:27.183Z,20.00
2022-11-08T09:26:03.844Z,21.80
2022-11-08T09:28:33.694Z,20.60
2022-11-08T09:31:06.951Z,18.20
2022-11-08T09:33:35.439Z,19.20
2022-11-08T09:36:04.717Z,18.00
2022-11-08T09:38:32.638Z,18.30
2022-11-08T09:41:25.341Z,18.50
2022-11-08T09:44:11.133Z,15.80
2022-11-08T09:47:03.981Z,14.90
2022-11-08T09:49:41.453Z,14.70
2022-11-08T09:52:11.688Z,18.90
2022-11-08T09:54:43.283Z,13.50
2022-11-08T09:57:23.692Z,16.70
2022-11-08T09:59:58.219Z,13.90
2022-11-08T10:02:27.578Z,14.10
2022-11-08T10:04:59.611Z,14.30
2022-11-08T10:07:54.530Z,13.10
2022-11-08T10:10:40.797Z,13.50
2022-11-08T10:13:16.087Z,13.00
2022-11-08T10:15:56.600Z,11.00
2022-11-08T10:18:42.831Z,12.10
2022-11-08T10:21:29.136Z,13.20
2022-11-08T10:24:10.195Z,13.30
2022-11-08T10:26:47.914Z,11.70
2022-11-08T10:29:21.912Z,12.50
2022-11-08T10:31:58.652Z,10.60
2022-11-08T10:34:29.227Z,11.70
2022-11-08T10:37:04.639Z,11.80
2022-11-08T10:39:38.528Z,11.80
2022-11-08T10:42:46.233Z,13.00
2022-11-08T10:45:14.108Z,11.00
2022-11-08T10:47:41.861Z,10.30
2022-11-08T10:50:19.976Z,11.70
2022-11-08T10:53:11.812Z,12.60
2022-11-08T10:55:46.932Z,10.30
2022-11-08T10:58:32.379Z,13.30
2022-11-08T11:01:17.492Z,9.70
2022-11-08T11:03:46.808Z,9.80
2022-11-08T11:06:32.811Z,10.60
2022-11-08T11:09:04.542Z,10.90
2022-11-08T11:11:32.295Z,9.80
2022-11-08T11:14:22.520Z,11.30
2022-11-08T11:17:07.570Z,9.90
2022-11-08T11:19:35.429Z,8.70
2022-11-08T11:22:07.397Z,9.80
2022-11-08T11:24:35.973Z,9.70
2022-11-08T11:27:08.027Z,8.20
2022-11-08T11:29:37.370Z,10.30
2022-11-08T11:32:25.639Z,10.10
2022-11-08T11:35:07.493Z,9.20
2022-11-08T11:37:45.112Z,10.50
2022-11-08T11:40:39.394Z,10.70
2022-11-08T11:43:43.088Z,8.20
2022-11-08T11:46:26.269Z,8.80
2022-11-08T11:49:00.162Z,10.80
2022-11-08T11:51:29.826Z,10.40
2022-11-08T11:53:58.290Z,10.40
2022-11-08T11:56:39.047Z,10.10
2022-11-08T11:59:45.522Z,9.50
2022-11-08T12:02:28.946Z,10.10
2022-11-08T12:05:32.849Z,9.30
2022-11-08T12:08:28.414Z,8.40
2022-11-08T12:11:43.697Z,8.20
2022-11-08T12:14:55.596Z,8.80
2022-11-08T12:17:55.158Z,9.60
2022-11-08T12:20:47.428Z,6.30
2022-11-08T12:23:24.711Z,6.60
2022-11-08T12:25:54.922Z,6.70
2022-11-08T12:28:56.693Z,8.40
2022-11-08T12:31:34.265Z,6.60
2022-11-08T12:34:21.802Z,10.30
2022-11-08T12:37:11.694Z,8.30
2022-11-08T12:40:01.753Z,8.50
2022-11-08T12:43:11.687Z,7.50
2022-11-08T12:45:56.477Z,7.30
2022-11-08T12:48:51.908Z,8.30
2022-11-08T12:51:50.062Z,9.50
2022-11-08T12:54:39.051Z,6.90
2022-11-08T12:57:17.256Z,8.60
2022-11-08T12:59:51.445Z,9.40
2022-11-08T13:02:32.307Z,10.00
2022-11-08T13:05:20.212Z,6.40
2022-11-08T13:07:52.141Z,8.00
2022-11-08T13:10:43.573Z,8.00
2022-11-08T13:13:53.194Z,6.30
2022-11-08T13:16:24.340Z,7.20
2022-11-08T13:19:00.206Z,7.40
2022-11-08T13:21:28.002Z,8.00
2022-11-08T13:24:06.768Z,6.20
2022-11-08T13:26:43.374Z,7.50
2022-11-08T13:29:17.279Z,6.60
2022-11-08T13:32:08.724Z,7.30
2022-11-08T13:35:05.101Z,7.30
2022-11-08T13:37:55.386Z,6.70
2022-11-08T13:40:32.570Z,10.90
2022-11-08T13:43:18.980Z,8.50
2022-11-08T13:45:47.152Z,7.90
2022-11-08T13:48:24.556Z,7.10
2022-11-08T13:51:23.092Z,10.00
2022-11-08T13:53:54.667Z,9.70
2022-11-08T13:56:51.770Z,9.00
2022-11-08T13:59:32.399Z,12.80
2022-11-08T14:02:33.331Z,16.60
2022-11-08T14:05:23.586Z,15.90
2022-11-08T14:08:16.412Z,19.90
2022-11-08T14:11:17.170Z,14.10
2022-11-08T14:14:34.180Z,14.00
2022-11-08T14:17:28.539Z,13.30
2022-11-08T14:19:59.228Z,14.80
2022-11-08T14:22:29.093Z,13.40
2022-11-08T14:25:28.776Z,14.50
2022-11-08T14:27:56.784Z,8.90
2022-11-08T14:30:24.720Z,10.00
2022-11-08T14:33:07.532Z,10.30
2022-11-08T14:35:35.426Z,12.50
2022-11-08T14:38:03.236Z,9.90
2022-11-08T14:40:31.555Z,10.80
2022-11-08T14:42:59.409Z,9.60
2022-11-08T14:45:29.045Z,10.20
2022-11-08T14:48:06.270Z,11.10
2022-11-08T14:50:35.190Z,11.50
2022-11-08T14:53:23.847Z,13.40
2022-11-08T14:56:15.719Z,12.20
2022-11-08T14:58:44.561Z,13.90
2022-11-08T15:01:12.533Z,18.70
2022-11-08T15:04:06.434Z,19.30
2022-11-08T15:06:39.273Z,13.70
2022-11-08T15:09:07.626Z,12.20
2022-11-08T15:11:40.485Z,11.40
2022-11-08T15:14:11.008Z,12.30
2022-11-08T15:16:46.868Z,11.90
2022-11-08T15:19:37.227Z,9.80
2022-11-08T15:22:35.406Z,14.60
2022-11-08T15:25:28.562Z,11.30
2022-11-08T15:27:58.375Z,12.50
2022-11-08T15:30:38.113Z,12.80
2022-11-08T15:33:06.112Z,19.40
2022-11-08T15:35:36.771Z,15.00
2022-11-08T15:38:27.832Z,20.30
2022-11-08T15:40:58.880Z,23.30
2022-11-08T15:43:50.301Z,22.40
2022-11-08T15:46:33.857Z,23.10
2022-11-08T15:49:03.206Z,20.00
2022-11-08T15:51:31.252Z,20.60
2022-11-08T15:53:59.005Z,18.80
2022-11-08T15:56:27.037Z,25.80
2022-11-08T15:58:54.895Z,23.90
2022-11-08T16:01:23.161Z,24.40
2022-11-08T16:03:52.786Z,27.80
2022-11-08T16:06:20.638Z,27.00
2022-11-08T16:08:50.048Z,25.00
2022-11-08T16:11:21.038Z,25.00
2022-11-08T16:13:49.405Z,26.30
2022-11-08T16:16:17.993Z,25.00
2022-11-08T16:18:45.828Z,28.20
